Dripping Springs' Hourly Summary for Monday, April 17, 2017
Hour Temp
(f)
RH
(%)
Solar Rad.
(MJ/m2)
Rainfall
(in)
Wind
(mph)
4/17/2017 12:00 AM 68 99 0 0 4.25
4/17/2017 1:00 AM 68 100 0 0 5.83
4/17/2017 2:00 AM 68 100 0 0 5.49
4/17/2017 3:00 AM 68 100 0 0 4.1
4/17/2017 4:00 AM 67 100 0 0 2.4
4/17/2017 5:00 AM 66 100 0 0 1.87
4/17/2017 6:00 AM 66 100 0 0 2.53
4/17/2017 7:00 AM 66 100 0 0 3.52
4/17/2017 8:00 AM 66 100 0.1 0 3.88
4/17/2017 9:00 AM 67 100 0.36 0 4.22
4/17/2017 10:00 AM 69 100 0.8 0 4.77
4/17/2017 11:00 AM 70 99 1.13 0 4.13
4/17/2017 12:00 PM 72 97 1.28 0 5.18
4/17/2017 1:00 PM 72 93 1.1 0 5.88
4/17/2017 2:00 PM 72 94 0.78 0 4.16
4/17/2017 3:00 PM 72 99 0.51 0 1.72
4/17/2017 4:00 PM 71 94 0.53 0 5.3
4/17/2017 5:00 PM 66 99 0.63 0 5.28
4/17/2017 6:00 PM 66 99 0.56 0 2.5
4/17/2017 7:00 PM 68 91 0.85 0 4.19
4/17/2017 8:00 PM 68 90 0.17 0 1.52
4/17/2017 9:00 PM 65 97 0 0 3.4
4/17/2017 10:00 PM 64 99 0 0 7.7
4/17/2017 11:00 PM 63 99 0 0 4.58
Data Summary 67 97 8.80 0.00 4.10